📊 Raw Sensor Data
Showing records 43776 to 43800 of 85,024 total
| ID | Distance (ft) | Battery V | Battery A | Int Temp (°F) | Int Humid (%) | Ext Temp (°F) | Solar V | RSSI | SNR | Time Stamp |
|---|---|---|---|---|---|---|---|---|---|---|
| 41261 | 15.5 | 3.95 | 0 | 97 | 49 | 89 | 5.10 | -67 | 7 | 05/21/2025 06:15 PM |
| 41260 | 15.5 | 3.95 | 5 | 97 | 49 | 88 | 5.10 | -68 | 7 | 05/21/2025 06:00 PM |
| 41259 | 15.5 | 3.95 | 5 | 98 | 49 | 89 | 5.10 | -68 | 7 | 05/21/2025 05:45 PM |
| 41258 | 15.5 | 3.95 | 5 | 99 | 48 | 89 | 5.10 | -67 | 8 | 05/21/2025 05:30 PM |
| 41257 | 15.5 | 3.95 | 0 | 100 | 48 | 90 | 5.10 | -68 | 8 | 05/21/2025 05:15 PM |
| 41256 | 15.5 | 3.95 | 0 | 102 | 46 | 90 | 5.10 | -68 | 8 | 05/21/2025 05:00 PM |
| 41255 | 15.5 | 3.95 | 5 | 102 | 45 | 92 | 5.10 | -69 | 8 | 05/21/2025 04:30 PM |
| 41254 | 15.5 | 3.95 | 5 | 102 | 45 | 94 | 5.10 | -68 | 8 | 05/21/2025 04:15 PM |
| 41253 | 15.5 | 3.95 | 0 | 102 | 44 | 94 | 5.10 | -69 | 8 | 05/21/2025 04:00 PM |
| 41252 | 15.4 | 3.95 | 5 | 102 | 43 | 94 | 5.10 | -68 | 8 | 05/21/2025 03:45 PM |
| 41251 | 15.4 | 3.95 | 0 | 102 | 42 | 95 | 5.10 | -69 | 8 | 05/21/2025 03:30 PM |
| 41250 | 15.4 | 3.95 | 5 | 99 | 41 | 90 | 5.10 | -69 | 7 | 05/21/2025 03:00 PM |
| 41249 | 15.4 | 3.95 | 0 | 99 | 40 | 90 | 5.10 | -68 | 7 | 05/21/2025 02:45 PM |
| 41248 | 15.3 | 3.98 | 0 | 97 | 40 | 89 | 5.10 | -69 | 8 | 05/21/2025 02:30 PM |
| 41247 | 15.3 | 3.95 | 0 | 95 | 41 | 88 | 5.10 | -69 | 8 | 05/21/2025 02:15 PM |
| 41246 | 15.3 | 3.95 | 0 | 93 | 41 | 88 | 5.10 | -69 | 8 | 05/21/2025 02:00 PM |
| 41245 | 15.3 | 4.03 | 0 | 92 | 41 | 85 | 5.10 | -69 | 8 | 05/21/2025 01:45 PM |
| 41244 | 15.2 | 3.95 | 0 | 90 | 41 | 84 | 5.10 | -69 | 7 | 05/21/2025 01:30 PM |
| 41243 | 15.3 | 3.95 | 0 | 89 | 41 | 84 | 5.10 | -69 | 8 | 05/21/2025 01:15 PM |
| 41242 | 15.3 | 3.95 | 0 | 89 | 41 | 84 | 5.10 | -69 | 8 | 05/21/2025 01:15 PM |
| 41241 | 15.2 | 4.02 | 0 | 88 | 42 | 84 | 5.10 | -68 | 7 | 05/21/2025 01:00 PM |
| 41240 | 15.3 | 3.95 | 0 | 87 | 42 | 82 | 5.10 | -70 | 8 | 05/21/2025 12:45 PM |
| 41239 | 15.2 | 3.95 | 0 | 86 | 42 | 82 | 5.10 | -70 | 7 | 05/21/2025 12:30 PM |
| 41238 | 15.3 | 3.95 | 0 | 84 | 42 | 81 | 5.10 | -70 | 7 | 05/21/2025 12:15 PM |
| 41237 | 15.3 | 3.95 | 0 | 83 | 42 | 82 | 5.10 | -70 | 8 | 05/21/2025 12:00 PM |